sensor_id;sensor_type;location;lat;lon;timestamp;pressure;altitude;pressure_sealevel;temperature;humidity
59951;BME280;45812;53.540;9.774;2023-04-01T00:02:21;99492.63;;;10.35;100.00
59951;BME280;45812;53.540;9.774;2023-04-01T00:04:46;99497.75;;;10.36;100.00
59951;BME280;45812;53.540;9.774;2023-04-01T00:07:11;99495.72;;;10.38;100.00
59951;BME280;45812;53.540;9.774;2023-04-01T00:09:37;99497.75;;;10.36;100.00
59951;BME280;45812;53.540;9.774;2023-04-01T00:12:02;99497.97;;;10.35;100.00
59951;BME280;45812;53.540;9.774;2023-04-01T00:14:28;99490.41;;;10.38;100.00
59951;BME280;45812;53.540;9.774;2023-04-01T00:16:54;99494.28;;;10.36;100.00
59951;BME280;45812;53.540;9.774;2023-04-01T00:19:19;99490.41;;;10.38;100.00
59951;BME280;45812;53.540;9.774;2023-04-01T00:21:44;99491.84;;;10.41;100.00
59951;BME280;45812;53.540;9.774;2023-04-01T00:24:10;99487.56;;;10.40;100.00
59951;BME280;45812;53.540;9.774;2023-04-01T00:26:35;99492.88;;;10.40;100.00
59951;BME280;45812;53.540;9.774;2023-04-01T00:29:00;99486.72;;;10.39;100.00
59951;BME280;45812;53.540;9.774;2023-04-01T00:31:26;99489.38;;;10.39;100.00
59951;BME280;45812;53.540;9.774;2023-04-01T00:33:52;99490.59;;;10.37;100.00
59951;BME280;45812;53.540;9.774;2023-04-01T00:36:20;99491.81;;;10.34;100.00
59951;BME280;45812;53.540;9.774;2023-04-01T00:38:47;99486.25;;;10.29;100.00
59951;BME280;45812;53.540;9.774;2023-04-01T00:41:13;99480.75;;;10.30;100.00
59951;BME280;45812;53.540;9.774;2023-04-01T00:43:41;99490.59;;;10.37;100.00
59951;BME280;45812;53.540;9.774;2023-04-01T00:46:07;99487.75;;;10.38;100.00
59951;BME280;45812;53.540;9.774;2023-04-01T00:48:34;99483.88;;;10.41;100.00
59951;BME280;45812;53.540;9.774;2023-04-01T00:51:02;99483.50;;;10.44;100.00
59951;BME280;45812;53.540;9.774;2023-04-01T00:53:30;99490.28;;;10.46;100.00
59951;BME280;45812;53.540;9.774;2023-04-01T00:56:01;99489.84;;;10.43;100.00
59951;BME280;45812;53.540;9.774;2023-04-01T00:58:31;99489.66;;;10.44;100.00
59951;BME280;45812;53.540;9.774;2023-04-01T01:00:59;99489.03;;;10.42;100.00
59951;BME280;45812;53.540;9.774;2023-04-01T01:03:25;99490.28;;;10.46;100.00
59951;BME280;45812;53.540;9.774;2023-04-01T01:12:07;99487.63;;;10.46;100.00
59951;BME280;45812;53.540;9.774;2023-04-01T01:17:15;99495.53;;;10.40;100.00
59951;BME280;45812;53.540;9.774;2023-04-01T01:22:45;99494.38;;;10.49;100.00
59951;BME280;45812;53.540;9.774;2023-04-01T01:31:26;99496.34;;;10.40;100.00
59951;BME280;45812;53.540;9.774;2023-04-01T01:34:11;99493.53;;;10.42;100.00
59951;BME280;45812;53.540;9.774;2023-04-01T01:36:42;99495.28;;;10.35;100.00
59951;BME280;45812;53.540;9.774;2023-04-01T01:39:11;99503.28;;;10.35;100.00
59951;BME280;45812;53.540;9.774;2023-04-01T01:41:38;99499.16;;;10.32;100.00
59951;BME280;45812;53.540;9.774;2023-04-01T01:44:08;99498.13;;;10.26;100.00
59951;BME280;45812;53.540;9.774;2023-04-01T01:46:38;99496.66;;;10.24;100.00
59951;BME280;45812;53.540;9.774;2023-04-01T01:49:06;99496.38;;;10.19;100.00
59951;BME280;45812;53.540;9.774;2023-04-01T01:51:32;99507.19;;;10.17;100.00
59951;BME280;45812;53.540;9.774;2023-04-01T01:53:57;99507.19;;;10.17;100.00
59951;BME280;45812;53.540;9.774;2023-04-01T01:56:26;99510.03;;;10.16;100.00
59951;BME280;45812;53.540;9.774;2023-04-01T01:58:56;99502.22;;;10.08;100.00
59951;BME280;45812;53.540;9.774;2023-04-01T02:01:28;99514.53;;;10.15;100.00
59951;BME280;45812;53.540;9.774;2023-04-01T02:03:55;99509.84;;;10.17;100.00
59951;BME280;45812;53.540;9.774;2023-04-01T02:06:23;99510.88;;;10.16;100.00
59951;BME280;45812;53.540;9.774;2023-04-01T02:09:00;99514.63;;;10.22;100.00
59951;BME280;45812;53.540;9.774;2023-04-01T02:11:37;99511.31;;;10.20;100.00
59951;BME280;45812;53.540;9.774;2023-04-01T02:14:22;99509.03;;;10.17;100.00
59951;BME280;45812;53.540;9.774;2023-04-01T02:17:02;99504.72;;;10.16;100.00
59951;BME280;45812;53.540;9.774;2023-04-01T02:19:39;99510.88;;;10.16;100.00
59951;BME280;45812;53.540;9.774;2023-04-01T02:22:09;99515.38;;;10.16;100.00
59951;BME280;45812;53.540;9.774;2023-04-01T02:24:38;99514.53;;;10.15;100.00
59951;BME280;45812;53.540;9.774;2023-04-01T02:27:05;99515.31;;;10.09;100.00
59951;BME280;45812;53.540;9.774;2023-04-01T02:29:30;99514.94;;;10.12;100.00
59951;BME280;45812;53.540;9.774;2023-04-01T02:31:56;99519.19;;;10.07;100.00
59951;BME280;45812;53.540;9.774;2023-04-01T02:34:23;99519.19;;;10.07;100.00
59951;BME280;45812;53.540;9.774;2023-04-01T02:36:49;99519.19;;;10.07;100.00
59951;BME280;45812;53.540;9.774;2023-04-01T02:39:15;99522.28;;;10.10;100.00
59951;BME280;45812;53.540;9.774;2023-04-01T02:41:42;99519.44;;;10.12;100.00
59951;BME280;45812;53.540;9.774;2023-04-01T02:44:09;99524.13;;;10.10;100.00
59951;BME280;45812;53.540;9.774;2023-04-01T02:46:35;99529.03;;;10.13;100.00
59951;BME280;45812;53.540;9.774;2023-04-01T02:49:00;99524.56;;;10.13;100.00
59951;BME280;45812;53.540;9.774;2023-04-01T02:51:25;99530.13;;;10.18;100.00
59951;BME280;45812;53.540;9.774;2023-04-01T02:53:51;99532.78;;;10.18;100.00
59951;BME280;45812;53.540;9.774;2023-04-01T02:56:16;99535.06;;;10.21;100.00
59951;BME280;45812;53.540;9.774;2023-04-01T02:58:42;99541.28;;;10.28;100.00
59951;BME280;45812;53.540;9.774;2023-04-01T03:01:07;99535.78;;;10.30;100.00
59951;BME280;45812;53.540;9.774;2023-04-01T03:03:33;99532.53;;;10.35;100.00
59951;BME280;45812;53.540;9.774;2023-04-01T03:06:01;99543.81;;;10.37;100.00
59951;BME280;45812;53.540;9.774;2023-04-01T03:08:29;99543.59;;;10.38;100.00
59951;BME280;45812;53.540;9.774;2023-04-01T03:10:54;99543.41;;;10.40;100.00
59951;BME280;45812;53.540;9.774;2023-04-01T03:13:20;99541.56;;;10.40;100.00
59951;BME280;45812;53.540;9.774;2023-04-01T03:15:45;99544.69;;;10.44;100.00
59951;BME280;45812;53.540;9.774;2023-04-01T03:18:10;99539.75;;;10.41;100.00
59951;BME280;45812;53.540;9.774;2023-04-01T03:20:36;99550.75;;;10.38;100.00
59951;BME280;45812;53.540;9.774;2023-04-01T03:23:01;99548.56;;;10.41;100.00
59951;BME280;45812;53.540;9.774;2023-04-01T03:25:26;99549.75;;;10.39;100.00
59951;BME280;45812;53.540;9.774;2023-04-01T03:27:53;99547.47;;;10.36;100.00
59951;BME280;45812;53.540;9.774;2023-04-01T03:30:19;99541.09;;;10.30;100.00
59951;BME280;45812;53.540;9.774;2023-04-01T03:32:44;99548.63;;;10.26;100.00
59951;BME280;45812;53.540;9.774;2023-04-01T03:35:09;99545.06;;;10.19;100.00
59951;BME280;45812;53.540;9.774;2023-04-01T03:37:35;99550.38;;;10.19;100.00
59951;BME280;45812;53.540;9.774;2023-04-01T03:40:00;99555.34;;;10.22;100.00
59951;BME280;45812;53.540;9.774;2023-04-01T03:42:25;99554.34;;;10.23;100.00
59951;BME280;45812;53.540;9.774;2023-04-01T03:44:51;99561.31;;;10.24;100.00
59951;BME280;45812;53.540;9.774;2023-04-01T03:47:16;99555.34;;;10.22;100.00
59951;BME280;45812;53.540;9.774;2023-04-01T03:49:41;99562.03;;;10.18;100.00
59951;BME280;45812;53.540;9.774;2023-04-01T03:52:09;99556.06;;;10.16;100.00
59951;BME280;45812;53.540;9.774;2023-04-01T03:54:35;99567.34;;;10.18;100.00
59951;BME280;45812;53.540;9.774;2023-04-01T03:57:00;99563.31;;;10.22;100.00
59951;BME280;45812;53.540;9.774;2023-04-01T03:59:26;99570.31;;;10.23;100.00
59951;BME280;45812;53.540;9.774;2023-04-01T04:01:51;99568.63;;;10.22;100.00
59951;BME280;45812;53.540;9.774;2023-04-01T04:04:16;99561.66;;;10.21;100.00
59951;BME280;45812;53.540;9.774;2023-04-01T04:06:42;99580.94;;;10.23;100.00
59951;BME280;45812;53.540;9.774;2023-04-01T04:09:08;99573.94;;;10.22;100.00
59951;BME280;45812;53.540;9.774;2023-04-01T04:11:33;99576.59;;;10.22;100.00
59951;BME280;45812;53.540;9.774;2023-04-01T04:13:59;99571.75;;;10.26;100.00
59951;BME280;45812;53.540;9.774;2023-04-01T04:16:24;99574.22;;;10.27;100.00
59951;BME280;45812;53.540;9.774;2023-04-01T04:18:49;99575.88;;;10.28;100.00
59951;BME280;45812;53.540;9.774;2023-04-01T04:21:16;99576.25;;;10.25;100.00
59951;BME280;45812;53.540;9.774;2023-04-01T04:23:41;99587.97;;;10.31;100.00
59951;BME280;45812;53.540;9.774;2023-04-01T04:26:10;99582.25;;;10.34;100.00
59951;BME280;45812;53.540;9.774;2023-04-01T04:28:36;99585.94;;;10.33;100.00
59951;BME280;45812;53.540;9.774;2023-04-01T04:31:02;99586.13;;;10.31;100.00
59951;BME280;45812;53.540;9.774;2023-04-01T04:33:27;99585.53;;;10.36;100.00
59951;BME280;45812;53.540;9.774;2023-04-01T04:35:55;99590.66;;;10.38;100.00
59951;BME280;45812;53.540;9.774;2023-04-01T04:38:21;99595.44;;;10.42;100.00
59951;BME280;45812;53.540;9.774;2023-04-01T04:40:47;99595.59;;;10.41;100.00
59951;BME280;45812;53.540;9.774;2023-04-01T04:43:13;99598.66;;;10.38;100.00
59951;BME280;45812;53.540;9.774;2023-04-01T04:45:39;99603.97;;;10.38;100.00
59951;BME280;45812;53.540;9.774;2023-04-01T04:48:06;99606.63;;;10.38;100.00
59951;BME280;45812;53.540;9.774;2023-04-01T04:50:31;99605.19;;;10.35;100.00
59951;BME280;45812;53.540;9.774;2023-04-01T04:52:56;99611.75;;;10.39;100.00
59951;BME280;45812;53.540;9.774;2023-04-01T04:55:22;99607.09;;;10.41;100.00
59951;BME280;45812;53.540;9.774;2023-04-01T04:57:47;99615.06;;;10.41;100.00
59951;BME280;45812;53.540;9.774;2023-04-01T05:00:12;99616.88;;;10.41;100.00
59951;BME280;45812;53.540;9.774;2023-04-01T05:02:38;99620.94;;;10.37;100.00
59951;BME280;45812;53.540;9.774;2023-04-01T05:05:04;99621.75;;;10.37;100.00
59951;BME280;45812;53.540;9.774;2023-04-01T05:07:29;99623.59;;;10.37;100.00
59951;BME280;45812;53.540;9.774;2023-04-01T05:09:55;99621.75;;;10.37;100.00
59951;BME280;45812;53.540;9.774;2023-04-01T05:12:20;99632.22;;;10.39;100.00
59951;BME280;45812;53.540;9.774;2023-04-01T05:14:45;99629.81;;;10.44;100.00
59951;BME280;45812;53.540;9.774;2023-04-01T05:17:12;99629.25;;;10.48;100.00
59951;BME280;45812;53.540;9.774;2023-04-01T05:19:38;99623.94;;;10.48;100.00
59951;BME280;45812;53.540;9.774;2023-04-01T05:22:04;99631.09;;;10.48;100.00
59951;BME280;45812;53.540;9.774;2023-04-01T05:24:30;99636.41;;;10.48;100.00
59951;BME280;45812;53.540;9.774;2023-04-01T05:26:55;99636.22;;;10.49;100.00
59951;BME280;45812;53.540;9.774;2023-04-01T05:29:21;99644.38;;;10.48;100.00
59951;BME280;45812;53.540;9.774;2023-04-01T05:31:46;99639.47;;;10.45;100.00
59951;BME280;45812;53.540;9.774;2023-04-01T05:34:13;99641.09;;;10.46;100.00
59951;BME280;45812;53.540;9.774;2023-04-01T05:36:38;99649.31;;;10.51;100.00
59951;BME280;45812;53.540;9.774;2023-04-01T05:39:03;99647.28;;;10.53;100.00
59951;BME280;45812;53.540;9.774;2023-04-01T05:41:29;99653.06;;;10.56;100.00
59951;BME280;45812;53.540;9.774;2023-04-01T05:43:54;99652.88;;;10.58;100.00
59951;BME280;45812;53.540;9.774;2023-04-01T05:46:20;99655.78;;;10.63;100.00
59951;BME280;45812;53.540;9.774;2023-04-01T05:48:45;99658.06;;;10.66;100.00
59951;BME280;45812;53.540;9.774;2023-04-01T05:51:14;99663.78;;;10.63;100.00
59951;BME280;45812;53.540;9.774;2023-04-01T05:53:40;99666.44;;;10.63;100.00
59951;BME280;45812;53.540;9.774;2023-04-01T05:56:06;99657.00;;;10.60;100.00
59951;BME280;45812;53.540;9.774;2023-04-01T05:58:33;99670.16;;;10.69;100.00
59951;BME280;45812;53.540;9.774;2023-04-01T06:01:07;99668.47;;;10.61;100.00
59951;BME280;45812;53.540;9.774;2023-04-01T06:03:33;99678.72;;;10.43;100.00
59951;BME280;45812;53.540;9.774;2023-04-01T06:05:58;99688.78;;;10.26;100.00
59951;BME280;45812;53.540;9.774;2023-04-01T06:08:26;99680.41;;;10.14;100.00
59951;BME280;45812;53.540;9.774;2023-04-01T06:10:55;99679.25;;;10.02;100.00
59951;BME280;45812;53.540;9.774;2023-04-01T06:19:27;99694.75;;;9.84;100.00
59951;BME280;45812;53.540;9.774;2023-04-01T06:30:43;99713.03;;;9.72;100.00
59951;BME280;45812;53.540;9.774;2023-04-01T06:38:49;99730.16;;;9.69;100.00
59951;BME280;45812;53.540;9.774;2023-04-01T06:41:27;99730.88;;;9.63;100.00
59951;BME280;45812;53.540;9.774;2023-04-01T06:46:57;99746.91;;;9.55;100.00
59951;BME280;45812;53.540;9.774;2023-04-01T06:49:33;99745.28;;;9.54;100.00
59951;BME280;45812;53.540;9.774;2023-04-01T06:52:37;99747.81;;;9.48;100.00
59951;BME280;45812;53.540;9.774;2023-04-01T06:55:27;99755.97;;;9.46;100.00
59951;BME280;45812;53.540;9.774;2023-04-01T06:57:55;99756.59;;;9.48;100.00
59951;BME280;45812;53.540;9.774;2023-04-01T07:00:38;99770.75;;;9.49;100.00
59951;BME280;45812;53.540;9.774;2023-04-01T07:03:16;99775.50;;;9.53;100.00
59951;BME280;45812;53.540;9.774;2023-04-01T07:05:45;99762.41;;;9.52;100.00
59951;BME280;45812;53.540;9.774;2023-04-01T07:08:14;99777.50;;;9.51;100.00
59951;BME280;45812;53.540;9.774;2023-04-01T07:10:54;99785.47;;;9.51;100.00
59951;BME280;45812;53.540;9.774;2023-04-01T07:13:34;99784.66;;;9.51;100.00
59951;BME280;45812;53.540;9.774;2023-04-01T07:16:21;99791.72;;;9.58;100.00
59951;BME280;45812;53.540;9.774;2023-04-01T07:19:03;99789.88;;;9.59;100.00
59951;BME280;45812;53.540;9.774;2023-04-01T07:21:36;99800.22;;;9.54;100.00
59951;BME280;45812;53.540;9.774;2023-04-01T07:24:10;99796.38;;;9.56;100.00
59951;BME280;45812;53.540;9.774;2023-04-01T07:26:38;99800.59;;;9.51;100.00
59951;BME280;45812;53.540;9.774;2023-04-01T07:29:08;99819.66;;;9.54;100.00
59951;BME280;45812;53.540;9.774;2023-04-01T07:41:13;99832.66;;;9.49;100.00
59951;BME280;45812;53.540;9.774;2023-04-01T07:49:07;99846.28;;;9.46;100.00
59951;BME280;45812;53.540;9.774;2023-04-01T07:54:26;99863.34;;;9.52;100.00
59951;BME280;45812;53.540;9.774;2023-04-01T07:57:02;99864.53;;;9.49;100.00
59951;BME280;45812;53.540;9.774;2023-04-01T07:59:54;99865.47;;;9.33;100.00
59951;BME280;45812;53.540;9.774;2023-04-01T08:02:43;99878.59;;;9.12;100.00
59951;BME280;45812;53.540;9.774;2023-04-01T08:05:25;99881.06;;;9.14;100.00
59951;BME280;45812;53.540;9.774;2023-04-01T08:08:13;99886.00;;;9.17;100.00
59951;BME280;45812;53.540;9.774;2023-04-01T08:10:57;99894.16;;;9.15;100.00
59951;BME280;45812;53.540;9.774;2023-04-01T08:13:31;99898.75;;;9.21;100.00
59951;BME280;45812;53.540;9.774;2023-04-01T08:18:58;99901.69;;;9.26;100.00
59951;BME280;45812;53.540;9.774;2023-04-01T08:21:35;99905.50;;;9.32;100.00
59951;BME280;45812;53.540;9.774;2023-04-01T08:24:27;99914.59;;;9.37;100.00
59951;BME280;45812;53.540;9.774;2023-04-01T08:26:57;99914.13;;;9.34;100.00
59951;BME280;45812;53.540;9.774;2023-04-01T08:29:42;99916.94;;;9.32;100.00
59951;BME280;45812;53.540;9.774;2023-04-01T08:32:17;99924.41;;;9.29;100.00
59951;BME280;45812;53.540;9.774;2023-04-01T08:34:50;99923.09;;;9.33;100.00
59951;BME280;45812;53.540;9.774;2023-04-01T08:37:30;99934.88;;;9.30;100.00
59951;BME280;45812;53.540;9.774;2023-04-01T08:40:01;99940.53;;;9.27;100.00
59951;BME280;45812;53.540;9.774;2023-04-01T08:43:11;99942.19;;;9.28;100.00
59951;BME280;45812;53.540;9.774;2023-04-01T08:46:04;99947.63;;;9.35;100.00
59951;BME280;45812;53.540;9.774;2023-04-01T08:51:22;99958.00;;;9.45;100.00
59951;BME280;45812;53.540;9.774;2023-04-01T08:53:57;99958.44;;;9.56;100.00
59951;BME280;45812;53.540;9.774;2023-04-01T08:59:13;99957.50;;;9.49;100.00
59951;BME280;45812;53.540;9.774;2023-04-01T09:04:25;99959.44;;;9.55;100.00
59951;BME280;45812;53.540;9.774;2023-04-01T09:07:08;99971.66;;;9.41;100.00
59951;BME280;45812;53.540;9.774;2023-04-01T09:10:00;99972.63;;;9.18;100.00
59951;BME280;45812;53.540;9.774;2023-04-01T09:13:09;99969.25;;;9.32;100.00
59951;BME280;45812;53.540;9.774;2023-04-01T09:16:13;99973.53;;;9.33;100.00
59951;BME280;45812;53.540;9.774;2023-04-01T09:19:41;99978.84;;;9.33;100.00
59951;BME280;45812;53.540;9.774;2023-04-01T09:21:51;99992.69;;;9.51;100.00
59951;BME280;45812;53.540;9.774;2023-04-01T09:24:40;99986.84;;;9.56;100.00
59951;BME280;45812;53.540;9.774;2023-04-01T09:27:29;100004.56;;;9.63;100.00
59951;BME280;45812;53.540;9.774;2023-04-01T09:33:34;100001.44;;;9.83;100.00
59951;BME280;45812;53.540;9.774;2023-04-01T09:36:33;100009.13;;;9.78;100.00
59951;BME280;45812;53.540;9.774;2023-04-01T09:39:33;100012.72;;;9.85;100.00
59951;BME280;45812;53.540;9.774;2023-04-01T09:44:47;100025.84;;;10.09;100.00
59951;BME280;45812;53.540;9.774;2023-04-01T09:47:26;100027.66;;;10.09;100.00
59951;BME280;45812;53.540;9.774;2023-04-01T09:52:40;100033.34;;;10.06;100.00
59951;BME280;45812;53.540;9.774;2023-04-01T10:00:55;100040.53;;;9.97;100.00
59951;BME280;45812;53.540;9.774;2023-04-01T10:03:46;100043.28;;;9.89;100.00
59951;BME280;45812;53.540;9.774;2023-04-01T10:09:41;100058.25;;;9.82;100.00
59951;BME280;45812;53.540;9.774;2023-04-01T10:12:26;100061.91;;;9.81;100.00
59951;BME280;45812;53.540;9.774;2023-04-01T10:15:25;100057.13;;;9.76;100.00
59951;BME280;45812;53.540;9.774;2023-04-01T10:18:25;100066.28;;;9.74;100.00
59951;BME280;45812;53.540;9.774;2023-04-01T10:21:10;100069.41;;;9.77;100.00
59951;BME280;45812;53.540;9.774;2023-04-01T10:26:38;100079.94;;;9.70;100.00
59951;BME280;45812;53.540;9.774;2023-04-01T10:34:46;100085.53;;;10.07;100.00
59951;BME280;45812;53.540;9.774;2023-04-01T10:46:01;100097.34;;;10.50;99.74
59951;BME280;45812;53.540;9.774;2023-04-01T11:06:26;100133.25;;;9.69;100.00
59951;BME280;45812;53.540;9.774;2023-04-01T11:09:12;100136.56;;;9.71;100.00
59951;BME280;45812;53.540;9.774;2023-04-01T11:12:09;100136.22;;;9.66;100.00
59951;BME280;45812;53.540;9.774;2023-04-01T11:20:25;100139.19;;;10.10;100.00
59951;BME280;45812;53.540;9.774;2023-04-01T11:26:09;100155.13;;;10.10;99.02
59951;BME280;45812;53.540;9.774;2023-04-01T11:28:48;100160.22;;;10.28;99.72
59951;BME280;45812;53.540;9.774;2023-04-01T11:34:04;100163.94;;;10.42;98.40
59951;BME280;45812;53.540;9.774;2023-04-01T11:39:16;100168.28;;;10.35;98.30
59951;BME280;45812;53.540;9.774;2023-04-01T11:51:06;100197.16;;;10.23;100.00
59951;BME280;45812;53.540;9.774;2023-04-01T11:53:56;100202.34;;;10.39;99.76
59951;BME280;45812;53.540;9.774;2023-04-01T12:07:55;100223.44;;;10.41;96.23
59951;BME280;45812;53.540;9.774;2023-04-01T12:10:55;100223.88;;;10.52;97.29
59951;BME280;45812;53.540;9.774;2023-04-01T12:16:15;100239.56;;;10.47;97.91
59951;BME280;45812;53.540;9.774;2023-04-01T12:18:52;100245.50;;;10.26;98.02
59951;BME280;45812;53.540;9.774;2023-04-01T12:21:26;100238.53;;;10.25;97.17
59951;BME280;45812;53.540;9.774;2023-04-01T12:29:38;100253.13;;;10.29;95.31
59951;BME280;45812;53.540;9.774;2023-04-01T12:32:30;100266.13;;;10.16;95.71
59951;BME280;45812;53.540;9.774;2023-04-01T12:40:02;100275.56;;;9.80;96.17
59951;BME280;45812;53.540;9.774;2023-04-01T12:42:59;100273.94;;;9.70;96.23
59951;BME280;45812;53.540;9.774;2023-04-01T12:48:31;100281.63;;;9.25;97.52
59951;BME280;45812;53.540;9.774;2023-04-01T12:51:19;100291.91;;;9.20;99.57
59951;BME280;45812;53.540;9.774;2023-04-01T12:54:17;100307.19;;;9.34;100.00
59951;BME280;45812;53.540;9.774;2023-04-01T12:59:43;100311.84;;;9.24;100.00
59951;BME280;45812;53.540;9.774;2023-04-01T13:02:28;100306.19;;;9.27;99.89
59951;BME280;45812;53.540;9.774;2023-04-01T13:05:24;100319.16;;;9.14;98.29
59951;BME280;45812;53.540;9.774;2023-04-01T13:08:30;100327.28;;;9.12;98.74
59951;BME280;45812;53.540;9.774;2023-04-01T13:11:08;100331.91;;;8.94;98.98
59951;BME280;45812;53.540;9.774;2023-04-01T13:16:48;100345.97;;;8.86;98.83
59951;BME280;45812;53.540;9.774;2023-04-01T13:19:21;100339.00;;;8.77;98.97
59951;BME280;45812;53.540;9.774;2023-04-01T13:21:57;100344.31;;;8.77;99.01
59951;BME280;45812;53.540;9.774;2023-04-01T13:24:51;100357.53;;;8.61;100.00
59951;BME280;45812;53.540;9.774;2023-04-01T13:27:30;100361.84;;;8.70;99.77
59951;BME280;45812;53.540;9.774;2023-04-01T13:30:30;100359.28;;;8.94;99.66
59951;BME280;45812;53.540;9.774;2023-04-01T13:36:03;100373.19;;;8.88;97.29
59951;BME280;45812;53.540;9.774;2023-04-01T13:41:33;100375.50;;;8.91;97.74
59951;BME280;45812;53.540;9.774;2023-04-01T13:44:27;100389.03;;;8.72;98.55
59951;BME280;45812;53.540;9.774;2023-04-01T13:46:58;100393.03;;;8.68;99.43
59951;BME280;45812;53.540;9.774;2023-04-01T13:49:38;100387.47;;;8.53;99.03
59951;BME280;45812;53.540;9.774;2023-04-01T13:58:05;100401.91;;;8.50;98.28
59951;BME280;45812;53.540;9.774;2023-04-01T14:00:45;100411.91;;;8.57;97.54
59951;BME280;45812;53.540;9.774;2023-04-01T14:05:56;100416.72;;;8.61;97.24
59951;BME280;45812;53.540;9.774;2023-04-01T14:15:05;100429.81;;;8.63;96.91
59951;BME280;45812;53.540;9.774;2023-04-01T14:17:53;100438.72;;;8.54;97.23
59951;BME280;45812;53.540;9.774;2023-04-01T14:20:41;100433.72;;;8.50;96.69
59951;BME280;45812;53.540;9.774;2023-04-01T14:26:19;100449.31;;;8.45;96.03
59951;BME280;45812;53.540;9.774;2023-04-01T14:29:21;100450.94;;;8.38;96.09
59951;BME280;45812;53.540;9.774;2023-04-01T14:37:58;100468.50;;;8.39;96.35
59951;BME280;45812;53.540;9.774;2023-04-01T14:41:02;100467.72;;;8.29;96.38
59951;BME280;45812;53.540;9.774;2023-04-01T14:50:21;100478.72;;;8.34;97.22
59951;BME280;45812;53.540;9.774;2023-04-01T14:55:25;100497.72;;;8.30;97.34
59951;BME280;45812;53.540;9.774;2023-04-01T15:03:19;100499.00;;;8.69;93.99
59951;BME280;45812;53.540;9.774;2023-04-01T15:05:51;100512.00;;;8.80;93.51
59951;BME280;45812;53.540;9.774;2023-04-01T15:08:26;100505.13;;;8.96;92.97
59951;BME280;45812;53.540;9.774;2023-04-01T15:11:24;100512.59;;;9.00;93.04
59951;BME280;45812;53.540;9.774;2023-04-01T15:14:04;100528.94;;;8.88;93.15
59951;BME280;45812;53.540;9.774;2023-04-01T15:16:51;100529.94;;;8.87;94.07
59951;BME280;45812;53.540;9.774;2023-04-01T15:19:37;100533.56;;;8.77;93.68
59951;BME280;45812;53.540;9.774;2023-04-01T15:28:18;100549.06;;;8.64;95.57
59951;BME280;45812;53.540;9.774;2023-04-01T15:33:48;100557.69;;;8.66;95.80
59951;BME280;45812;53.540;9.774;2023-04-01T15:39:11;100572.09;;;8.64;95.31
59951;BME280;45812;53.540;9.774;2023-04-01T15:44:45;100585.47;;;8.36;95.78
59951;BME280;45812;53.540;9.774;2023-04-01T15:52:49;100586.47;;;8.35;96.63
59951;BME280;45812;53.540;9.774;2023-04-01T15:55:26;100590.03;;;8.44;96.42
59951;BME280;45812;53.540;9.774;2023-04-01T15:58:06;100608.97;;;8.49;96.59
59951;BME280;45812;53.540;9.774;2023-04-01T16:00:53;100603.50;;;8.33;95.97
59951;BME280;45812;53.540;9.774;2023-04-01T16:03:28;100611.59;;;8.31;97.30
59951;BME280;45812;53.540;9.774;2023-04-01T16:11:37;100628.19;;;7.98;99.19
59951;BME280;45812;53.540;9.774;2023-04-01T16:19:31;100637.94;;;7.97;100.00
59951;BME280;45812;53.540;9.774;2023-04-01T16:22:19;100643.41;;;7.96;99.70
59951;BME280;45812;53.540;9.774;2023-04-01T16:24:50;100650.00;;;7.92;99.77
59951;BME280;45812;53.540;9.774;2023-04-01T16:29:51;100657.31;;;7.80;99.08
59951;BME280;45812;53.540;9.774;2023-04-01T16:36:24;100675.47;;;7.47;100.00
59951;BME280;45812;53.540;9.774;2023-04-01T16:39:15;100685.53;;;7.44;100.00
59951;BME280;45812;53.540;9.774;2023-04-01T16:42:15;100690.53;;;7.47;100.00
59951;BME280;45812;53.540;9.774;2023-04-01T16:47:17;100701.28;;;7.45;99.11
59951;BME280;45812;53.540;9.774;2023-04-01T16:49:58;100708.94;;;7.39;99.40
59951;BME280;45812;53.540;9.774;2023-04-01T16:52:36;100719.00;;;7.35;100.00
59951;BME280;45812;53.540;9.774;2023-04-01T16:55:18;100718.16;;;7.35;100.00
59951;BME280;45812;53.540;9.774;2023-04-01T16:57:51;100726.97;;;7.25;100.00
59951;BME280;45812;53.540;9.774;2023-04-01T17:00:28;100738.16;;;7.10;100.00
59951;BME280;45812;53.540;9.774;2023-04-01T17:05:20;100741.75;;;7.18;99.66
59951;BME280;45812;53.540;9.774;2023-04-01T17:10:54;100751.53;;;7.08;99.71
59951;BME280;45812;53.540;9.774;2023-04-01T17:13:34;100757.22;;;7.04;100.00
59951;BME280;45812;53.540;9.774;2023-04-01T17:18:50;100764.78;;;6.89;99.67
59951;BME280;45812;53.540;9.774;2023-04-01T17:22:00;100777.16;;;6.88;99.90
59951;BME280;45812;53.540;9.774;2023-04-01T17:29:56;100790.09;;;6.62;99.85
59951;BME280;45812;53.540;9.774;2023-04-01T17:32:49;100804.56;;;6.58;99.32
59951;BME280;45812;53.540;9.774;2023-04-01T17:35:32;100804.53;;;6.49;99.33
59951;BME280;45812;53.540;9.774;2023-04-01T17:41:09;100824.59;;;6.51;99.35
59951;BME280;45812;53.540;9.774;2023-04-01T17:43:52;100836.13;;;6.41;99.42
59951;BME280;45812;53.540;9.774;2023-04-01T17:46:31;100834.03;;;6.44;99.98
59951;BME280;45812;53.540;9.774;2023-04-01T17:55:14;100862.47;;;6.52;99.05
59951;BME280;45812;53.540;9.774;2023-04-01T18:12:09;100885.09;;;6.35;97.09
59951;BME280;45812;53.540;9.774;2023-04-01T18:17:46;100903.66;;;6.24;95.93
59951;BME280;45812;53.540;9.774;2023-04-01T18:20:31;100902.47;;;6.07;96.54
59951;BME280;45812;53.540;9.774;2023-04-01T18:25:34;100921.72;;;6.19;95.75
59951;BME280;45812;53.540;9.774;2023-04-01T18:30:43;100926.94;;;6.09;97.14
59951;BME280;45812;53.540;9.774;2023-04-01T18:33:19;100938.84;;;6.15;97.33
59951;BME280;45812;53.540;9.774;2023-04-01T18:38:16;100957.25;;;6.05;96.85
59951;BME280;45812;53.540;9.774;2023-04-01T18:41:22;100964.66;;;6.11;96.95
59951;BME280;45812;53.540;9.774;2023-04-01T18:44:12;100962.97;;;6.10;96.68